Portada
METAR-TAF:

METAR-TAF

Aeroports :

Saint-Denis, Reunió

latitud: 20-53S, longitud: 055-31E, altitud: 21 m

Observació

L'informe es va fer fa 28 minuts, a les 09:00 UTC
Vent 10 kt del Est/Nord-Est
Temperatura 28°C
Humitat 70%
Pressió 1016 hPa
Visibilitat 10 km o més
Escasses núvols a una alçada de 2900 ft

METAR: FMEE 230900Z AUTO 07010KT 9999 FEW029 28/22 Q1016 NOSIG

Hora: 13:28 (09:28 UTC)

Pronòstic

L'informe es va fer fa 4 hores i 28 minuts, a les 05:00 UTC
Pronòstic vàlid del 23 a les 06 UTC al 24 a les 12 UTC
Vent 9 kt del Est
Visibilitat 10 km o més
Escasses núvols a una alçada de 3500 ft
Núvols disperses a una alçada de 5000 ft
Evolucionant progressivament
l' 23 a les 15 UTC al 23 a les 17 UTC
Vent 10 kt del Sud/Sud-Est
Evolucionant progressivament
l' 24 a les 05 UTC al 24 a les 07 UTC
Vent 10 kt del Oest/Nord-Oest

TAF: FMEE 230500Z 2306/2412 10009KT 9999 FEW035 SCT050 BECMG 2315/2317 16010KT BECMG 2405/2407 29010KT

Observacions i pronòstics meteorològics de més de 4000 aeroports (METAR i TAF).

Les estacions disponibles són els punts grocs i vermells al mapa.

Posi el ratolí al punt desitjat per veure el nom de l'estació.

Feu clic per veure les observacions i els pronòstics meteorològics.

Per canviar el mapa: feu clic els botons verds amb una creu de color negre per apropar; al botó verd amb un guió per allunyar la imatge; o en les fletxes verdes per a mapes adjacents.


METAR-TAF: